Simcha — PE7688 — position and weather

sailwx.info

Track history (hours):
 
Tides and Currents Weather Stations Pressure Air Temp Water Temp Dewpoint Dewpoint Depression Visibility Wind Speed Wind Dir Waves Ship Positions

Simcha

Last reported at 2014-Dec-22 18:33 UTC. Time now 2014-Dec-22 19:31 UTC.
Position N 53°18' E 006°59'.

Length 110 m.

Type: Ship. MMSI: 244780014.

Date/timePositionNaut miles runAvg speedWind from/ knotsBaromVisibWave heightAir tempDewpointWater temp
2014-Dec-22 18:33N 53°18' E 006°59'0 0.0
2014-Dec-22 17:33N 53°18' E 006°59'0 0.0
2014-Dec-22 16:33N 53°18' E 006°59'0 0.0
2014-Dec-22 15:33N 53°18' E 006°59'0 0.0
2014-Dec-22 14:33N 53°18' E 006°59'0 0.0
2014-Dec-22 13:33N 53°18' E 006°59'0 0.0
2014-Dec-22 12:33N 53°18' E 006°59'0 0.0
2014-Dec-22 11:33N 53°18' E 006°59'0 0.0
2014-Dec-22 10:33N 53°18' E 006°59'0 0.0
2014-Dec-22 09:33N 53°18' E 006°59'0 0.0
2014-Dec-22 08:33N 53°18' E 006°59'0 0.0
2014-Dec-22 07:33N 53°18' E 006°59'0 0.0
2014-Dec-22 06:33N 53°18' E 006°59'0 0.0
2014-Dec-22 05:33N 53°18' E 006°59'0 0.0
2014-Dec-22 04:33N 53°18' E 006°59'0 0.0
2014-Dec-22 03:33N 53°18' E 006°59'0 0.0
2014-Dec-22 02:33N 53°18' E 006°59'0 0.0
2014-Dec-22 01:33N 53°18' E 006°59'0 0.0
2014-Dec-22 00:33N 53°18' E 006°59'0 0.0
2014-Dec-21 23:33N 53°18' E 006°59'0 0.0
2014-Dec-21 22:33N 53°18' E 006°59'0 0.0
2014-Dec-21 21:33N 53°18' E 006°59'0 0.0
2014-Dec-21 20:33N 53°18' E 006°59'0 0.0
2014-Dec-21 19:33N 53°18' E 006°59'1 0.8
2014-Dec-21 18:33N 53°19' E 006°58'1 1.1
2014-Dec-21 17:33N 53°19' E 006°56'0 0.0
2014-Dec-21 16:33N 53°19' E 006°56'0 0.0
2014-Dec-21 15:33N 53°19' E 006°56'0 0.0
2014-Dec-21 14:33N 53°19' E 006°56'0 0.0
2014-Dec-21 13:33N 53°19' E 006°56'3 3.3
2014-Dec-21 12:33N 53°18' E 006°50'5 5.0
2014-Dec-21 11:33N 53°16' E 006°43'51 1.4
2014-Dec-19 23:24N 52°45' E 005°34'6 6.2
2014-Dec-19 22:29N 52°40' E 005°33'12 5.3
2014-Dec-19 20:12N 52°30' E 005°21'4 6.7
2014-Dec-19 19:33N 52°28' E 005°15'7 6.6
2014-Dec-19 18:33N 52°24' E 005°06'5 5.3
2014-Dec-19 17:33N 52°23' E 004°58'6 5.2
2014-Dec-19 16:29N 52°18' E 005°01'12 6.0
2014-Dec-19 14:33N 52°06' E 005°05'1 0.8
2014-Dec-19 13:33N 52°06' E 005°05'3 3.1
2014-Dec-19 12:33N 52°03' E 005°07'0 0.0
2014-Dec-19 11:33N 52°03' E 005°07'0 0.0
2014-Dec-19 10:30N 52°03' E 005°07'0 0.0
2014-Dec-19 09:33N 52°03' E 005°07'0 0.0
2014-Dec-19 08:33N 52°03' E 005°07'0 0.0
2014-Dec-19 07:33N 52°03' E 005°07'0 0.0
2014-Dec-19 06:33N 52°03' E 005°07'0 0.0
2014-Dec-19 05:33N 52°03' E 005°07'0 0.0
2014-Dec-19 04:33N 52°03' E 005°07'0 0.0
2014-Dec-19 03:33N 52°03' E 005°07'0 0.0
2014-Dec-19 02:33N 52°03' E 005°07'0 0.0
2014-Dec-19 01:33N 52°03' E 005°07'0 0.0
2014-Dec-19 00:33N 52°03' E 005°07'0 0.0
2014-Dec-18 23:33N 52°03' E 005°07'0 0.0
2014-Dec-18 22:33N 52°03' E 005°07'0 0.0
2014-Dec-18 21:33N 52°03' E 005°07'0 0.0
2014-Dec-18 20:33N 52°03' E 005°07'0 0.0
2014-Dec-18 19:33N 52°03' E 005°07'0 0.0
2014-Dec-18 18:33N 52°03' E 005°07'0 0.0
2014-Dec-18 17:33N 52°03' E 005°07'0 0.0
2014-Dec-18 16:33N 52°03' E 005°07'0 0.0
2014-Dec-18 15:33N 52°03' E 005°07'0 0.0
2014-Dec-18 14:33N 52°03' E 005°07'0 0.0
2014-Dec-18 13:33N 52°03' E 005°07'0 0.0
2014-Dec-18 12:33N 52°03' E 005°07'0 0.0
2014-Dec-18 11:33N 52°03' E 005°07'0 0.0
2014-Dec-18 10:33N 52°03' E 005°07'0 0.0
2014-Dec-18 09:33N 52°03' E 005°07'0 0.0
2014-Dec-18 08:33N 52°03' E 005°07'0 0.0
2014-Dec-18 07:33N 52°03' E 005°07'0 0.0
2014-Dec-18 06:33N 52°03' E 005°07'0 0.0
2014-Dec-18 05:33N 52°03' E 005°07'0 0.0
2014-Dec-18 04:33N 52°03' E 005°07'0 0.0
2014-Dec-18 03:33N 52°03' E 005°07'0 0.0
2014-Dec-18 02:33N 52°03' E 005°07'0 0.0
2014-Dec-18 01:33N 52°03' E 005°07'0 0.0
2014-Dec-18 00:34N 52°03' E 005°07'0 0.0
2014-Dec-17 23:33N 52°03' E 005°07'0 0.0
2014-Dec-17 22:33N 52°03' E 005°07'0 0.0
2014-Dec-17 21:33N 52°03' E 005°07'12 5.5
2014-Dec-17 19:27N 52°14' E 005°00'6 6.8
2014-Dec-17 18:33N 52°20' E 005°01'3 3.5
2014-Dec-17 17:33N 52°23' E 004°58'7 6.5
2014-Dec-17 16:33N 52°25' E 005°08'8 7.4
2014-Dec-17 15:32N 52°29' E 005°18'6 5.8
2014-Dec-17 14:33N 52°32' E 005°26'7 6.9
2014-Dec-17 13:33N 52°39' E 005°31'55 3.1
2014-Dec-16 19:33N 53°15' E 006°41'6 6.1
2014-Dec-16 18:33N 53°18' E 006°50'4 3.8
2014-Dec-16 17:33N 53°19' E 006°56'0 0.0
2014-Dec-16 16:33N 53°19' E 006°56'1 0.7
2014-Dec-16 15:33N 53°19' E 006°57'0 0.4
2014-Dec-16 14:33N 53°20' E 006°56'0 0.0
2014-Dec-16 13:33N 53°20' E 006°56'0 0.0
2014-Dec-16 12:33N 53°20' E 006°56'0 0.0
2014-Dec-16 11:33N 53°20' E 006°56'0 0.0
2014-Dec-16 10:33N 53°20' E 006°56'0 0.0
2014-Dec-16 09:33N 53°20' E 006°56'0 0.0
2014-Dec-16 08:33N 53°20' E 006°56'0 0.0
2014-Dec-16 07:33N 53°20' E 006°56'0 0.0
2014-Dec-16 06:33N 53°20' E 006°56'0 0.0
2014-Dec-16 05:33N 53°20' E 006°56'2 2.3
2014-Dec-16 04:33N 53°19' E 006°53'5 4.1
2014-Dec-16 03:23N 53°17' E 006°46'52 4.0
2014-Dec-15 14:17N 52°46' E 005°35'6 7.5
2014-Dec-15 13:31N 52°41' E 005°34'9 6.9
2014-Dec-15 12:10N 52°35' E 005°47'4 7.1
2014-Dec-15 11:33N 52°34' E 005°54'5 5.2
2014-Dec-15 10:34N 52°31' E 006°01'82 5.5
2014-Dec-14 19:33N 51°14' E 006°46'3 3.0
2014-Dec-14 18:34N 51°11' E 006°48'  
Track history (hours):
 
Tides and Currents Weather Stations Pressure Air Temp Water Temp Dewpoint Dewpoint Depression Visibility Wind Speed Wind Dir Waves Ship Positions

Simcha

Last reported at 2014-Dec-22 18:33 UTC. Time now 2014-Dec-22 19:31 UTC.
Position N 53°18' E 006°59'.

Length 110 m.

Type: Ship. MMSI: 244780014.

Date/timePositionNaut miles runAvg speedWind from/ knotsBaromVisibWave heightAir tempDewpointWater temp
2014-Dec-22 18:33N 53°18' E 006°59'0 0.0
2014-Dec-22 17:33N 53°18' E 006°59'0 0.0
2014-Dec-22 16:33N 53°18' E 006°59'0 0.0
2014-Dec-22 15:33N 53°18' E 006°59'0 0.0
2014-Dec-22 14:33N 53°18' E 006°59'0 0.0
2014-Dec-22 13:33N 53°18' E 006°59'0 0.0
2014-Dec-22 12:33N 53°18' E 006°59'0 0.0
2014-Dec-22 11:33N 53°18' E 006°59'0 0.0
2014-Dec-22 10:33N 53°18' E 006°59'0 0.0
2014-Dec-22 09:33N 53°18' E 006°59'0 0.0
2014-Dec-22 08:33N 53°18' E 006°59'0 0.0
2014-Dec-22 07:33N 53°18' E 006°59'0 0.0
2014-Dec-22 06:33N 53°18' E 006°59'0 0.0
2014-Dec-22 05:33N 53°18' E 006°59'0 0.0
2014-Dec-22 04:33N 53°18' E 006°59'0 0.0
2014-Dec-22 03:33N 53°18' E 006°59'0 0.0
2014-Dec-22 02:33N 53°18' E 006°59'0 0.0
2014-Dec-22 01:33N 53°18' E 006°59'0 0.0
2014-Dec-22 00:33N 53°18' E 006°59'0 0.0
2014-Dec-21 23:33N 53°18' E 006°59'0 0.0
2014-Dec-21 22:33N 53°18' E 006°59'0 0.0
2014-Dec-21 21:33N 53°18' E 006°59'0 0.0
2014-Dec-21 20:33N 53°18' E 006°59'0 0.0
2014-Dec-21 19:33N 53°18' E 006°59'1 0.8
2014-Dec-21 18:33N 53°19' E 006°58'1 1.1
2014-Dec-21 17:33N 53°19' E 006°56'0 0.0
2014-Dec-21 16:33N 53°19' E 006°56'0 0.0
2014-Dec-21 15:33N 53°19' E 006°56'0 0.0
2014-Dec-21 14:33N 53°19' E 006°56'0 0.0
2014-Dec-21 13:33N 53°19' E 006°56'3 3.3
2014-Dec-21 12:33N 53°18' E 006°50'5 5.0
2014-Dec-21 11:33N 53°16' E 006°43'51 1.4
2014-Dec-19 23:24N 52°45' E 005°34'6 6.2
2014-Dec-19 22:29N 52°40' E 005°33'12 5.3
2014-Dec-19 20:12N 52°30' E 005°21'4 6.7
2014-Dec-19 19:33N 52°28' E 005°15'7 6.6
2014-Dec-19 18:33N 52°24' E 005°06'5 5.3
2014-Dec-19 17:33N 52°23' E 004°58'6 5.2
2014-Dec-19 16:29N 52°18' E 005°01'12 6.0
2014-Dec-19 14:33N 52°06' E 005°05'1 0.8
2014-Dec-19 13:33N 52°06' E 005°05'3 3.1
2014-Dec-19 12:33N 52°03' E 005°07'0 0.0
2014-Dec-19 11:33N 52°03' E 005°07'0 0.0
2014-Dec-19 10:30N 52°03' E 005°07'0 0.0
2014-Dec-19 09:33N 52°03' E 005°07'0 0.0
2014-Dec-19 08:33N 52°03' E 005°07'0 0.0
2014-Dec-19 07:33N 52°03' E 005°07'0 0.0
2014-Dec-19 06:33N 52°03' E 005°07'0 0.0
2014-Dec-19 05:33N 52°03' E 005°07'0 0.0
2014-Dec-19 04:33N 52°03' E 005°07'0 0.0
2014-Dec-19 03:33N 52°03' E 005°07'0 0.0
2014-Dec-19 02:33N 52°03' E 005°07'0 0.0
2014-Dec-19 01:33N 52°03' E 005°07'0 0.0
2014-Dec-19 00:33N 52°03' E 005°07'0 0.0
2014-Dec-18 23:33N 52°03' E 005°07'0 0.0
2014-Dec-18 22:33N 52°03' E 005°07'0 0.0
2014-Dec-18 21:33N 52°03' E 005°07'0 0.0
2014-Dec-18 20:33N 52°03' E 005°07'0 0.0
2014-Dec-18 19:33N 52°03' E 005°07'0 0.0
2014-Dec-18 18:33N 52°03' E 005°07'0 0.0
2014-Dec-18 17:33N 52°03' E 005°07'0 0.0
2014-Dec-18 16:33N 52°03' E 005°07'0 0.0
2014-Dec-18 15:33N 52°03' E 005°07'0 0.0
2014-Dec-18 14:33N 52°03' E 005°07'0 0.0
2014-Dec-18 13:33N 52°03' E 005°07'0 0.0
2014-Dec-18 12:33N 52°03' E 005°07'0 0.0
2014-Dec-18 11:33N 52°03' E 005°07'0 0.0
2014-Dec-18 10:33N 52°03' E 005°07'0 0.0
2014-Dec-18 09:33N 52°03' E 005°07'0 0.0
2014-Dec-18 08:33N 52°03' E 005°07'0 0.0
2014-Dec-18 07:33N 52°03' E 005°07'0 0.0
2014-Dec-18 06:33N 52°03' E 005°07'0 0.0
2014-Dec-18 05:33N 52°03' E 005°07'0 0.0
2014-Dec-18 04:33N 52°03' E 005°07'0 0.0
2014-Dec-18 03:33N 52°03' E 005°07'0 0.0
2014-Dec-18 02:33N 52°03' E 005°07'0 0.0
2014-Dec-18 01:33N 52°03' E 005°07'0 0.0
2014-Dec-18 00:34N 52°03' E 005°07'0 0.0
2014-Dec-17 23:33N 52°03' E 005°07'0 0.0
2014-Dec-17 22:33N 52°03' E 005°07'0 0.0
2014-Dec-17 21:33N 52°03' E 005°07'12 5.5
2014-Dec-17 19:27N 52°14' E 005°00'6 6.8
2014-Dec-17 18:33N 52°20' E 005°01'3 3.5
2014-Dec-17 17:33N 52°23' E 004°58'7 6.5
2014-Dec-17 16:33N 52°25' E 005°08'8 7.4
2014-Dec-17 15:32N 52°29' E 005°18'6 5.8
2014-Dec-17 14:33N 52°32' E 005°26'7 6.9
2014-Dec-17 13:33N 52°39' E 005°31'55 3.1
2014-Dec-16 19:33N 53°15' E 006°41'6 6.1
2014-Dec-16 18:33N 53°18' E 006°50'4 3.8
2014-Dec-16 17:33N 53°19' E 006°56'0 0.0
2014-Dec-16 16:33N 53°19' E 006°56'1 0.7
2014-Dec-16 15:33N 53°19' E 006°57'0 0.4
2014-Dec-16 14:33N 53°20' E 006°56'0 0.0
2014-Dec-16 13:33N 53°20' E 006°56'0 0.0
2014-Dec-16 12:33N 53°20' E 006°56'0 0.0
2014-Dec-16 11:33N 53°20' E 006°56'0 0.0
2014-Dec-16 10:33N 53°20' E 006°56'0 0.0
2014-Dec-16 09:33N 53°20' E 006°56'0 0.0
2014-Dec-16 08:33N 53°20' E 006°56'0 0.0
2014-Dec-16 07:33N 53°20' E 006°56'0 0.0
2014-Dec-16 06:33N 53°20' E 006°56'0 0.0
2014-Dec-16 05:33N 53°20' E 006°56'2 2.3
2014-Dec-16 04:33N 53°19' E 006°53'5 4.1
2014-Dec-16 03:23N 53°17' E 006°46'52 4.0
2014-Dec-15 14:17N 52°46' E 005°35'6 7.5
2014-Dec-15 13:31N 52°41' E 005°34'9 6.9
2014-Dec-15 12:10N 52°35' E 005°47'4 7.1
2014-Dec-15 11:33N 52°34' E 005°54'5 5.2
2014-Dec-15 10:34N 52°31' E 006°01'82 5.5
2014-Dec-14 19:33N 51°14' E 006°46'3 3.0
2014-Dec-14 18:34N 51°11' E 006°48'  

Dump ship's entire track history